createdAt,value
2017-08-10T00:01:00.775Z,14.64
2017-08-10T00:02:10.304Z,14.6
2017-08-10T00:03:19.511Z,14.65
2017-08-10T00:04:29.535Z,14.61
2017-08-10T00:05:38.741Z,14.6
2017-08-10T00:06:47.635Z,14.54
2017-08-10T00:07:56.838Z,14.54
2017-08-10T00:09:06.043Z,14.55
2017-08-10T00:10:15.673Z,14.55
2017-08-10T00:11:25.197Z,14.5
2017-08-10T00:12:34.727Z,14.55
2017-08-10T00:13:44.255Z,14.6
2017-08-10T00:14:53.786Z,14.61
2017-08-10T00:16:03.039Z,14.54
2017-08-10T00:17:12.569Z,14.51
2017-08-10T00:18:21.458Z,14.52
2017-08-10T00:19:30.667Z,14.51
2017-08-10T00:20:40.197Z,14.57
2017-08-10T00:21:49.139Z,14.45
2017-08-10T00:22:58.019Z,14.5
2017-08-10T00:24:07.549Z,14.52
2017-08-10T00:25:16.429Z,14.43
2017-08-10T00:26:25.635Z,14.52
2017-08-10T00:27:35.482Z,14.51
2017-08-10T00:28:44.362Z,14.54
2017-08-10T00:29:53.263Z,14.52
2017-08-10T00:31:02.793Z,14.5
2017-08-10T00:32:11.669Z,14.39
2017-08-10T00:33:21.502Z,14.39
2017-08-10T00:34:30.705Z,14.33
2017-08-10T00:35:39.910Z,14.28
2017-08-10T00:36:49.121Z,14.29
2017-08-10T00:37:58.000Z,14.22
2017-08-10T00:39:08.002Z,14.25
2017-08-10T00:40:16.883Z,14.24
2017-08-10T00:41:26.093Z,14.37
2017-08-10T00:42:35.622Z,14.29
2017-08-10T00:43:44.502Z,14.33
2017-08-10T00:44:54.129Z,14.33
2017-08-10T00:46:03.329Z,14.28
2017-08-10T00:47:12.209Z,14.24
2017-08-10T00:48:21.085Z,14.32
2017-08-10T00:49:29.985Z,14.25
2017-08-10T00:50:39.295Z,14.25
2017-08-10T00:51:48.821Z,14.17
2017-08-10T00:52:58.678Z,14.2
2017-08-10T00:54:08.205Z,14.18
2017-08-10T00:55:17.094Z,14.18
2017-08-10T00:56:26.019Z,14.24
2017-08-10T00:57:34.912Z,14.17
2017-08-10T00:58:44.444Z,14.24
2017-08-10T00:59:53.651Z,14.24
2017-08-10T01:01:02.856Z,14.36
2017-08-10T01:02:12.209Z,14.36
2017-08-10T01:03:21.090Z,14.36
2017-08-10T01:04:30.618Z,14.32
2017-08-10T01:05:39.826Z,14.29
2017-08-10T01:06:49.360Z,14.33
2017-08-10T01:07:58.944Z,14.32
2017-08-10T01:09:08.153Z,14.32
2017-08-10T01:10:17.357Z,14.33
2017-08-10T01:11:27.208Z,14.36
2017-08-10T01:12:36.409Z,14.37
2017-08-10T01:13:46.569Z,14.28
2017-08-10T01:14:55.769Z,14.36
2017-08-10T01:16:04.976Z,14.36
2017-08-10T01:17:14.509Z,14.29
2017-08-10T01:18:23.711Z,14.42
2017-08-10T01:19:33.391Z,14.45
2017-08-10T01:20:42.918Z,14.5
2017-08-10T01:21:52.449Z,14.58
2017-08-10T01:23:01.331Z,14.51
2017-08-10T01:24:10.213Z,14.54
2017-08-10T01:25:19.517Z,14.57
2017-08-10T01:26:28.725Z,14.55
2017-08-10T01:27:38.281Z,14.58
2017-08-10T01:28:47.165Z,14.52
2017-08-10T01:29:56.697Z,14.52
2017-08-10T01:31:07.122Z,14.58
2017-08-10T01:32:16.647Z,14.52
2017-08-10T01:33:25.853Z,14.54
2017-08-10T01:34:35.383Z,14.46
2017-08-10T01:35:44.591Z,14.39
2017-08-10T01:36:54.544Z,14.43
2017-08-10T01:38:03.745Z,14.37
2017-08-10T01:39:12.949Z,14.42
2017-08-10T01:40:22.820Z,14.5
2017-08-10T01:41:32.029Z,14.4
2017-08-10T01:42:41.980Z,14.51
2017-08-10T01:43:50.866Z,14.46
2017-08-10T01:45:00.392Z,14.5
2017-08-10T01:46:10.579Z,14.47
2017-08-10T01:47:20.112Z,14.5
2017-08-10T01:48:30.112Z,14.54
2017-08-10T01:49:38.996Z,14.54
2017-08-10T01:50:48.525Z,14.58
2017-08-10T01:51:58.052Z,14.55
2017-08-10T01:53:06.947Z,14.57
2017-08-10T01:54:16.302Z,14.57
2017-08-10T01:55:25.506Z,14.51
2017-08-10T01:56:34.725Z,14.52
2017-08-10T01:57:43.930Z,14.54
2017-08-10T01:58:52.812Z,14.54
2017-08-10T02:00:02.175Z,14.57
2017-08-10T02:01:11.386Z,14.54
2017-08-10T02:02:20.914Z,14.61
2017-08-10T02:03:30.449Z,14.55
2017-08-10T02:04:39.656Z,14.54
2017-08-10T02:05:49.706Z,14.6
2017-08-10T02:06:59.229Z,14.64
2017-08-10T02:08:08.111Z,14.62
2017-08-10T02:09:17.644Z,14.65
2017-08-10T02:10:27.500Z,14.62
2017-08-10T02:11:37.176Z,14.8
2017-08-10T02:12:46.393Z,14.69
2017-08-10T02:13:55.601Z,14.68
2017-08-10T02:15:05.451Z,14.72
2017-08-10T02:16:15.369Z,14.69
2017-08-10T02:17:25.052Z,14.69
2017-08-10T02:18:34.259Z,14.77
2017-08-10T02:19:43.788Z,14.81
2017-08-10T02:20:52.990Z,14.77
2017-08-10T02:22:01.870Z,14.8
2017-08-10T02:23:11.549Z,14.78
2017-08-10T02:24:21.074Z,14.81
2017-08-10T02:25:30.278Z,14.95
2017-08-10T02:26:39.160Z,14.86
2017-08-10T02:27:48.039Z,14.88
2017-08-10T02:28:56.922Z,14.95
2017-08-10T02:30:06.793Z,14.91
2017-08-10T02:31:16.687Z,14.88
2017-08-10T02:32:26.542Z,14.98
2017-08-10T02:33:35.752Z,14.99
2017-08-10T02:34:45.430Z,14.98
2017-08-10T02:35:54.956Z,15.01
2017-08-10T02:37:04.167Z,15.02
2017-08-10T02:38:13.371Z,15.03
2017-08-10T02:39:22.267Z,15.02
2017-08-10T02:40:31.945Z,15.03
2017-08-10T02:41:41.476Z,14.96
2017-08-10T02:42:51.325Z,15.02
2017-08-10T02:44:00.545Z,14.84
2017-08-10T02:45:10.072Z,14.94
2017-08-10T02:46:19.003Z,14.86
2017-08-10T02:47:28.861Z,14.89
2017-08-10T02:48:38.062Z,14.91
2017-08-10T02:49:47.976Z,14.91
2017-08-10T02:50:57.184Z,14.84
2017-08-10T02:52:06.964Z,14.81
2017-08-10T02:53:16.816Z,14.88
2017-08-10T02:54:25.700Z,14.84
2017-08-10T02:55:35.547Z,14.89
2017-08-10T02:56:45.077Z,14.89
2017-08-10T02:57:54.428Z,14.86
2017-08-10T02:59:04.286Z,14.81
2017-08-10T03:00:13.174Z,14.89
2017-08-10T03:01:23.029Z,14.78
2017-08-10T03:02:32.232Z,14.75
2017-08-10T03:03:41.437Z,14.8
2017-08-10T03:04:50.325Z,14.84
2017-08-10T03:06:00.172Z,14.78
2017-08-10T03:07:10.352Z,14.77
2017-08-10T03:08:19.877Z,14.75
2017-08-10T03:09:29.708Z,14.86
2017-08-10T03:10:38.919Z,14.78
2017-08-10T03:11:48.124Z,14.83
2017-08-10T03:12:57.334Z,14.78
2017-08-10T03:14:06.222Z,14.8
2017-08-10T03:15:15.253Z,14.78
2017-08-10T03:16:24.458Z,14.69
2017-08-10T03:17:33.670Z,14.73
2017-08-10T03:18:43.222Z,14.62
2017-08-10T03:19:52.116Z,14.73
2017-08-10T03:21:02.015Z,14.61
2017-08-10T03:22:11.873Z,14.75
2017-08-10T03:23:22.045Z,14.65
2017-08-10T03:24:31.252Z,14.65
2017-08-10T03:25:40.778Z,14.64
2017-08-10T03:26:50.137Z,14.64
2017-08-10T03:27:59.344Z,14.65
2017-08-10T03:29:08.883Z,14.52
2017-08-10T03:30:18.412Z,14.54
2017-08-10T03:31:27.946Z,14.54
2017-08-10T03:32:37.722Z,14.51
2017-08-10T03:33:46.924Z,14.51
2017-08-10T03:34:56.461Z,14.54
2017-08-10T03:36:05.693Z,14.52
2017-08-10T03:37:14.894Z,14.58
2017-08-10T03:38:23.829Z,14.54
2017-08-10T03:39:33.033Z,14.51
2017-08-10T03:40:42.248Z,14.52
2017-08-10T03:41:51.453Z,14.45
2017-08-10T03:43:01.308Z,14.5
2017-08-10T03:44:11.138Z,14.51
2017-08-10T03:45:20.345Z,14.46
2017-08-10T03:46:29.223Z,14.32
2017-08-10T03:47:39.070Z,14.42
2017-08-10T03:48:48.275Z,14.42
2017-08-10T03:49:57.907Z,14.36
2017-08-10T03:51:07.111Z,14.4
2017-08-10T03:52:16.960Z,14.28
2017-08-10T03:53:26.491Z,14.32
2017-08-10T03:54:36.670Z,14.29
2017-08-10T03:55:46.080Z,14.32
2017-08-10T03:56:55.281Z,14.32
2017-08-10T03:58:04.809Z,14.4
2017-08-10T03:59:14.013Z,14.32
2017-08-10T04:00:23.537Z,14.28
2017-08-10T04:01:33.867Z,14.35
2017-08-10T04:02:43.717Z,14.28
2017-08-10T04:03:53.247Z,14.25
2017-08-10T04:05:02.135Z,14.29
2017-08-10T04:06:12.005Z,14.29
2017-08-10T04:07:21.364Z,14.18
2017-08-10T04:08:30.568Z,14.2
2017-08-10T04:09:40.100Z,14.2
2017-08-10T04:10:49.306Z,14.22
2017-08-10T04:11:58.512Z,14.22
2017-08-10T04:13:08.414Z,14.21
2017-08-10T04:14:17.621Z,14.2
2017-08-10T04:15:27.478Z,14.09
2017-08-10T04:16:37.019Z,14.07
2017-08-10T04:17:46.224Z,14.04
2017-08-10T04:18:55.208Z,14.09
2017-08-10T04:20:04.736Z,14.04
2017-08-10T04:21:14.277Z,14.03
2017-08-10T04:22:23.799Z,14.02
2017-08-10T04:23:33.002Z,14
2017-08-10T04:24:42.686Z,14.07
2017-08-10T04:25:52.559Z,14.06
2017-08-10T04:27:02.086Z,14.04
2017-08-10T04:28:11.612Z,14.06
2017-08-10T04:29:20.824Z,14.06
2017-08-10T04:30:30.502Z,14.07
2017-08-10T04:31:39.379Z,14.12
2017-08-10T04:32:48.591Z,14.07
2017-08-10T04:33:57.798Z,14.1
2017-08-10T04:35:07.031Z,14.15
2017-08-10T04:36:16.704Z,14.14
2017-08-10T04:37:25.912Z,14.15
2017-08-10T04:38:35.115Z,14.18
2017-08-10T04:39:44.643Z,14.21
2017-08-10T04:40:53.526Z,14.17
2017-08-10T04:42:02.755Z,14.2
2017-08-10T04:43:11.959Z,14.14
2017-08-10T04:44:20.838Z,14.1
2017-08-10T04:45:30.048Z,14.15
2017-08-10T04:46:39.580Z,14.14
2017-08-10T04:47:49.158Z,14.18
2017-08-10T04:48:58.369Z,14.15
2017-08-10T04:50:07.573Z,14.22
2017-08-10T04:51:16.789Z,14.27
2017-08-10T04:52:26.641Z,14.45
2017-08-10T04:53:36.167Z,14.42
2017-08-10T04:54:46.020Z,14.4
2017-08-10T04:55:55.228Z,14.36
2017-08-10T04:57:04.446Z,14.4
2017-08-10T04:58:13.330Z,14.51
2017-08-10T04:59:22.309Z,14.47
2017-08-10T05:00:32.164Z,14.47
2017-08-10T05:01:41.699Z,14.45
2017-08-10T05:02:50.581Z,14.54
2017-08-10T05:04:00.107Z,14.47
2017-08-10T05:05:09.961Z,14.43
2017-08-10T05:06:19.167Z,14.51
2017-08-10T05:07:28.375Z,14.46
2017-08-10T05:08:37.580Z,14.42
2017-08-10T05:09:47.442Z,14.37
2017-08-10T05:10:57.401Z,14.46
2017-08-10T05:12:06.933Z,14.47
2017-08-10T05:13:16.781Z,14.5
2017-08-10T05:14:26.310Z,14.51
2017-08-10T05:15:35.518Z,14.52
2017-08-10T05:16:45.094Z,14.55
2017-08-10T05:17:54.955Z,14.55
2017-08-10T05:19:04.482Z,14.54
2017-08-10T05:20:13.689Z,14.62
2017-08-10T05:21:22.901Z,14.54
2017-08-10T05:22:31.935Z,14.55
2017-08-10T05:23:40.815Z,14.58
2017-08-10T05:24:50.346Z,14.6
2017-08-10T05:25:59.553Z,14.5
2017-08-10T05:27:09.091Z,14.7
2017-08-10T05:28:18.348Z,14.68
2017-08-10T05:29:27.878Z,14.65
2017-08-10T05:30:37.743Z,14.62
2017-08-10T05:31:46.956Z,14.75
2017-08-10T05:32:55.837Z,14.77
2017-08-10T05:34:05.097Z,14.69
2017-08-10T05:35:14.643Z,14.73
2017-08-10T05:36:24.176Z,14.86
2017-08-10T05:37:33.701Z,14.86
2017-08-10T05:38:42.906Z,14.92
2017-08-10T05:39:51.990Z,14.83
2017-08-10T05:41:00.874Z,14.88
2017-08-10T05:42:10.724Z,14.96
2017-08-10T05:43:19.609Z,14.96
2017-08-10T05:44:28.814Z,14.96
2017-08-10T05:45:39.475Z,14.94
2017-08-10T05:46:49.005Z,15.14
2017-08-10T05:47:58.224Z,15.11
2017-08-10T05:49:07.756Z,15.14
2017-08-10T05:50:17.616Z,15.1
2017-08-10T05:51:26.919Z,15.14
2017-08-10T05:52:36.131Z,15.23
2017-08-10T05:53:45.016Z,15.27
2017-08-10T05:54:54.222Z,15.25
2017-08-10T05:56:03.450Z,15.25
2017-08-10T05:57:12.391Z,15.28
2017-08-10T05:58:22.249Z,15.27
2017-08-10T05:59:31.779Z,15.28
2017-08-10T06:00:40.668Z,15.25
2017-08-10T06:01:50.523Z,15.23
2017-08-10T06:03:00.802Z,15.28
2017-08-10T06:04:10.007Z,15.21
2017-08-10T06:05:19.535Z,15.23
2017-08-10T06:06:29.067Z,15.28
2017-08-10T06:07:38.273Z,15.19
2017-08-10T06:08:47.959Z,15.29
2017-08-10T06:09:57.161Z,15.27
2017-08-10T06:11:07.021Z,15.29
2017-08-10T06:12:16.237Z,15.29
2017-08-10T06:13:26.085Z,15.29
2017-08-10T06:14:35.020Z,15.28
2017-08-10T06:15:44.235Z,15.29
2017-08-10T06:16:53.441Z,15.35
2017-08-10T06:18:03.303Z,15.36
2017-08-10T06:19:12.192Z,15.41
2017-08-10T06:20:21.077Z,15.41
2017-08-10T06:21:30.316Z,15.39
2017-08-10T06:22:39.854Z,15.49
2017-08-10T06:23:49.391Z,15.49
2017-08-10T06:24:59.244Z,15.53
2017-08-10T06:26:09.072Z,15.56
2017-08-10T06:27:18.275Z,15.54
2017-08-10T06:28:28.459Z,15.54
2017-08-10T06:29:37.337Z,15.6
2017-08-10T06:30:46.871Z,15.59
2017-08-10T06:31:56.412Z,15.67
2017-08-10T06:33:06.262Z,15.75
2017-08-10T06:34:15.150Z,15.69
2017-08-10T06:35:24.353Z,15.76
2017-08-10T06:36:33.562Z,15.86
2017-08-10T06:37:43.340Z,15.87
2017-08-10T06:38:52.546Z,15.89
2017-08-10T06:40:02.404Z,15.93
2017-08-10T06:41:12.261Z,15.93
2017-08-10T06:42:21.792Z,15.89
2017-08-10T06:43:31.397Z,16
2017-08-10T06:44:40.602Z,16.08
2017-08-10T06:45:50.461Z,16.11
2017-08-10T06:46:59.996Z,16.15
2017-08-10T06:48:08.878Z,16.23
2017-08-10T06:49:18.487Z,16.31
2017-08-10T06:50:28.667Z,16.35
2017-08-10T06:51:37.552Z,16.43
2017-08-10T06:52:47.081Z,16.35
2017-08-10T06:53:56.613Z,16.49
2017-08-10T06:55:06.343Z,16.49
2017-08-10T06:56:15.891Z,16.46
2017-08-10T06:57:25.101Z,16.46
2017-08-10T06:58:34.312Z,16.57
2017-08-10T06:59:43.847Z,16.53
2017-08-10T07:00:53.954Z,16.56
2017-08-10T07:02:02.846Z,16.63
2017-08-10T07:03:12.048Z,16.68
2017-08-10T07:04:21.579Z,16.73
2017-08-10T07:05:30.474Z,16.76
2017-08-10T07:06:39.833Z,16.78
2017-08-10T07:07:49.368Z,16.86
2017-08-10T07:08:58.255Z,16.88
2017-08-10T07:10:08.110Z,16.83
2017-08-10T07:11:17.655Z,16.88
2017-08-10T07:12:27.659Z,16.96
2017-08-10T07:13:36.895Z,16.88
2017-08-10T07:14:45.778Z,16.97
2017-08-10T07:15:54.664Z,16.96
2017-08-10T07:17:03.873Z,17.14
2017-08-10T07:18:13.562Z,17.15
2017-08-10T07:19:23.122Z,17.15
2017-08-10T07:20:32.975Z,17.14
2017-08-10T07:21:42.836Z,17.14
2017-08-10T07:22:52.055Z,17.23
2017-08-10T07:24:02.172Z,17.16
2017-08-10T07:25:12.024Z,17.26
2017-08-10T07:26:20.909Z,17.23
2017-08-10T07:27:29.798Z,17.33
2017-08-10T07:28:39.007Z,17.4
2017-08-10T07:29:48.515Z,17.37
2017-08-10T07:30:57.732Z,17.54
2017-08-10T07:32:06.624Z,17.51
2017-08-10T07:33:16.167Z,17.49
2017-08-10T07:34:25.371Z,17.58
2017-08-10T07:35:34.424Z,17.63
2017-08-10T07:36:43.629Z,17.66
2017-08-10T07:37:52.844Z,17.63
2017-08-10T07:39:02.376Z,17.77
2017-08-10T07:40:11.584Z,17.74
2017-08-10T07:41:21.500Z,17.71
2017-08-10T07:42:31.035Z,17.64
2017-08-10T07:43:39.922Z,17.78
2017-08-10T07:44:49.776Z,17.81
2017-08-10T07:45:59.306Z,17.96
2017-08-10T07:47:08.883Z,17.86
2017-08-10T07:48:18.095Z,17.78
2017-08-10T07:49:26.978Z,17.86
2017-08-10T07:50:36.184Z,17.89
2017-08-10T07:51:45.399Z,17.97
2017-08-10T07:52:55.329Z,17.95
2017-08-10T07:54:04.538Z,17.96
2017-08-10T07:55:14.070Z,18.02
2017-08-10T07:56:23.279Z,18.08
2017-08-10T07:57:32.809Z,18.07
2017-08-10T07:58:42.549Z,18.14
2017-08-10T07:59:51.758Z,18.15
2017-08-10T08:01:01.625Z,18.29
2017-08-10T08:02:10.832Z,18.2
2017-08-10T08:03:20.044Z,18.2
2017-08-10T08:04:29.905Z,18.12
2017-08-10T08:05:39.761Z,18.18
2017-08-10T08:06:48.971Z,18.1
2017-08-10T08:07:58.503Z,18.2
2017-08-10T08:09:07.384Z,18.12
2017-08-10T08:10:16.275Z,18.25
2017-08-10T08:11:25.478Z,18.23
2017-08-10T08:12:34.700Z,18.18
2017-08-10T08:13:44.560Z,18.18
2017-08-10T08:14:53.779Z,18.29
2017-08-10T08:16:03.515Z,18.33
2017-08-10T08:17:13.381Z,18.36
2017-08-10T08:18:22.912Z,18.36
2017-08-10T08:19:32.447Z,18.41
2017-08-10T08:20:42.302Z,18.37
2017-08-10T08:21:51.664Z,18.36
2017-08-10T08:23:01.200Z,18.47
2017-08-10T08:24:10.409Z,18.57
2017-08-10T08:25:20.263Z,18.48
2017-08-10T08:26:30.122Z,18.52
2017-08-10T08:27:39.652Z,18.55
2017-08-10T08:28:49.189Z,18.54
2017-08-10T08:29:58.397Z,18.57
2017-08-10T08:31:07.287Z,18.72
2017-08-10T08:32:16.819Z,18.66
2017-08-10T08:33:25.852Z,18.82
2017-08-10T08:34:35.383Z,18.72
2017-08-10T08:35:44.592Z,18.78
2017-08-10T08:36:54.135Z,18.85
2017-08-10T08:38:03.344Z,18.85
2017-08-10T08:39:13.185Z,18.84
2017-08-10T08:40:23.364Z,18.81
2017-08-10T08:41:32.255Z,18.88
2017-08-10T08:42:41.789Z,18.84
2017-08-10T08:43:51.002Z,18.91
2017-08-10T08:45:00.837Z,18.9
2017-08-10T08:46:10.049Z,18.9
2017-08-10T08:47:19.260Z,18.91
2017-08-10T08:48:28.469Z,18.91
2017-08-10T08:49:37.695Z,18.88
2017-08-10T08:50:47.389Z,18.94
2017-08-10T08:51:56.926Z,18.88
2017-08-10T08:53:06.136Z,18.92
2017-08-10T08:54:15.669Z,19.1
2017-08-10T08:55:24.883Z,19.08
2017-08-10T08:56:34.523Z,19.18
2017-08-10T08:57:44.392Z,19.23
2017-08-10T08:58:54.249Z,19.26
2017-08-10T09:00:03.784Z,19.28
2017-08-10T09:01:13.004Z,19.36
2017-08-10T09:02:22.686Z,19.48
2017-08-10T09:03:32.234Z,19.5
2017-08-10T09:04:41.121Z,19.59
2017-08-10T09:05:50.336Z,19.62
2017-08-10T09:06:59.225Z,19.61
2017-08-10T09:08:08.952Z,19.59
2017-08-10T09:09:18.492Z,19.61
2017-08-10T09:10:28.031Z,19.69
2017-08-10T09:11:37.263Z,19.73
2017-08-10T09:12:46.479Z,19.71
2017-08-10T09:13:55.841Z,19.74
2017-08-10T09:15:05.053Z,19.71
2017-08-10T09:16:14.593Z,19.77
2017-08-10T09:17:24.128Z,19.98
2017-08-10T09:18:33.663Z,19.94
2017-08-10T09:19:43.724Z,20.1
2017-08-10T09:20:52.946Z,20.06
2017-08-10T09:22:01.840Z,19.98
2017-08-10T09:23:10.728Z,20.06
2017-08-10T09:24:19.942Z,19.98
2017-08-10T09:25:29.262Z,19.98
2017-08-10T09:26:38.794Z,20.02
2017-08-10T09:27:48.325Z,20.03
2017-08-10T09:28:57.555Z,19.96
2017-08-10T09:30:07.413Z,20.03
2017-08-10T09:31:16.829Z,20.02
2017-08-10T09:32:26.044Z,20.17
2017-08-10T09:33:34.944Z,20.18
2017-08-10T09:34:44.493Z,20.17
2017-08-10T09:35:53.703Z,20.23
2017-08-10T09:37:03.740Z,20.14
2017-08-10T09:38:12.956Z,20.08
2017-08-10T09:39:21.843Z,20.2
2017-08-10T09:40:31.064Z,20.23
2017-08-10T09:41:39.955Z,20.2
2017-08-10T09:42:49.859Z,20.18
2017-08-10T09:43:59.398Z,20.33
2017-08-10T09:45:08.933Z,20.31
2017-08-10T09:46:17.822Z,20.38
2017-08-10T09:47:28.005Z,20.38
2017-08-10T09:48:37.547Z,20.58
2017-08-10T09:49:47.088Z,20.5
2017-08-10T09:50:55.979Z,20.48
2017-08-10T09:52:05.832Z,20.57
2017-08-10T09:53:14.728Z,20.54
2017-08-10T09:54:23.994Z,20.7
2017-08-10T09:55:33.852Z,20.72
2017-08-10T09:56:43.063Z,20.7
2017-08-10T09:57:52.602Z,20.76
2017-08-10T09:59:02.463Z,20.7
2017-08-10T10:00:12.290Z,20.74
2017-08-10T10:01:21.823Z,20.77
2017-08-10T10:02:31.054Z,20.84
2017-08-10T10:03:40.275Z,20.88
2017-08-10T10:04:49.488Z,20.76
2017-08-10T10:05:59.176Z,20.92
2017-08-10T10:07:08.716Z,20.91
2017-08-10T10:08:17.928Z,20.92
2017-08-10T10:09:27.136Z,20.91
2017-08-10T10:10:37.319Z,20.92
2017-08-10T10:11:46.683Z,20.97
2017-08-10T10:12:56.228Z,20.92
2017-08-10T10:14:05.449Z,20.95
2017-08-10T10:15:14.336Z,20.99
2017-08-10T10:16:23.546Z,21.07
2017-08-10T10:17:33.557Z,21.19
2017-08-10T10:18:42.769Z,21.16
2017-08-10T10:19:51.982Z,21.24
2017-08-10T10:21:01.519Z,21.24
2017-08-10T10:22:11.378Z,21.27
2017-08-10T10:23:20.267Z,21.29
2017-08-10T10:24:29.483Z,21.19
2017-08-10T10:25:39.028Z,21.27
2017-08-10T10:26:48.258Z,21.25
2017-08-10T10:27:57.472Z,21.28
2017-08-10T10:29:06.694Z,21.21
2017-08-10T10:30:15.904Z,21.13
2017-08-10T10:31:25.452Z,21.29
2017-08-10T10:32:34.667Z,21.27
2017-08-10T10:33:44.525Z,21.22
2017-08-10T10:34:53.786Z,21.37
2017-08-10T10:36:02.670Z,21.37
2017-08-10T10:37:11.883Z,21.38
2017-08-10T10:38:21.104Z,21.46
2017-08-10T10:39:30.634Z,21.59
2017-08-10T10:40:40.552Z,21.58
2017-08-10T10:41:49.439Z,21.68
2017-08-10T10:42:58.975Z,21.65
2017-08-10T10:44:07.864Z,21.64
2017-08-10T10:45:17.722Z,21.75
2017-08-10T10:46:27.655Z,21.84
2017-08-10T10:47:36.867Z,21.86
2017-08-10T10:48:46.400Z,21.96
2017-08-10T10:49:55.292Z,21.96
2017-08-10T10:51:04.827Z,21.83
2017-08-10T10:52:14.240Z,21.88
2017-08-10T10:53:23.455Z,22.1
2017-08-10T10:54:33.636Z,22.09
2017-08-10T10:55:42.530Z,22.2
2017-08-10T10:56:52.068Z,22.25
2017-08-10T10:58:01.805Z,22.28
2017-08-10T10:59:11.341Z,22.2
2017-08-10T11:00:20.556Z,22.24
2017-08-10T11:01:30.738Z,22.12
2017-08-10T11:02:40.282Z,22.3
2017-08-10T11:03:49.326Z,22.31
2017-08-10T11:04:59.198Z,22.09
2017-08-10T11:06:08.741Z,22.24
2017-08-10T11:07:18.282Z,22.36
2017-08-10T11:08:27.493Z,22.43
2017-08-10T11:09:37.031Z,22.43
2017-08-10T11:10:46.241Z,22.36
2017-08-10T11:11:55.807Z,22.17
2017-08-10T11:13:05.022Z,22.17
2017-08-10T11:14:14.239Z,22.2
2017-08-10T11:15:23.498Z,22.28
2017-08-10T11:16:33.034Z,22.31
2017-08-10T11:17:41.926Z,22.45
2017-08-10T11:18:51.137Z,22.57
2017-08-10T11:20:00.020Z,22.61
2017-08-10T11:21:09.817Z,22.72
2017-08-10T11:22:19.679Z,22.62
2017-08-10T11:23:28.571Z,22.79
2017-08-10T11:24:37.782Z,22.8
2017-08-10T11:25:46.999Z,22.75
2017-08-10T11:26:56.409Z,22.86
2017-08-10T11:28:05.625Z,22.86
2017-08-10T11:29:15.163Z,22.82
2017-08-10T11:30:24.053Z,22.86
2017-08-10T11:31:33.598Z,22.88
2017-08-10T11:32:42.750Z,22.9
2017-08-10T11:33:52.615Z,22.94
2017-08-10T11:35:02.157Z,22.94
2017-08-10T11:36:11.372Z,22.9
2017-08-10T11:37:20.912Z,22.9
2017-08-10T11:38:30.190Z,22.94
2017-08-10T11:39:40.055Z,23.02
2017-08-10T11:40:49.589Z,22.97
2017-08-10T11:41:59.127Z,22.95
2017-08-10T11:43:08.672Z,22.97
2017-08-10T11:44:18.459Z,23
2017-08-10T11:45:27.670Z,22.83
2017-08-10T11:46:37.211Z,22.95
2017-08-10T11:47:46.755Z,23.07
2017-08-10T11:48:56.294Z,23.02
2017-08-10T11:50:05.560Z,23.1
2017-08-10T11:51:14.770Z,23.01
2017-08-10T11:52:24.310Z,22.98
2017-08-10T11:53:33.525Z,23.07
2017-08-10T11:54:42.733Z,22.98
2017-08-10T11:55:52.745Z,23
2017-08-10T11:57:02.602Z,22.94
2017-08-10T11:58:12.141Z,22.94
2017-08-10T11:59:22.001Z,23.12
2017-08-10T12:00:31.861Z,23.15
2017-08-10T12:01:41.698Z,23.38
2017-08-10T12:02:50.591Z,23.48
2017-08-10T12:04:00.452Z,23.57
2017-08-10T12:05:10.169Z,23.55
2017-08-10T12:06:19.712Z,23.58
2017-08-10T12:07:29.080Z,23.61
2017-08-10T12:08:39.268Z,23.7
2017-08-10T12:09:48.505Z,23.47
2017-08-10T12:10:58.044Z,23.57
2017-08-10T12:12:06.935Z,23.54
2017-08-10T12:13:16.413Z,23.57
2017-08-10T12:14:25.952Z,23.57
2017-08-10T12:15:35.529Z,23.65
2017-08-10T12:16:44.445Z,23.72
2017-08-10T12:17:53.658Z,23.83
2017-08-10T12:19:03.626Z,23.78
2017-08-10T12:20:13.162Z,23.94
2017-08-10T12:21:23.344Z,23.8
2017-08-10T12:22:32.237Z,23.94
2017-08-10T12:23:41.451Z,24
2017-08-10T12:24:50.814Z,23.98
2017-08-10T12:26:00.358Z,24.02
2017-08-10T12:27:09.902Z,24.02
2017-08-10T12:28:19.774Z,24.06
2017-08-10T12:29:29.309Z,23.94
2017-08-10T12:30:38.899Z,23.94
2017-08-10T12:31:48.173Z,23.94
2017-08-10T12:32:57.388Z,24
2017-08-10T12:34:06.604Z,24.18
2017-08-10T12:35:15.497Z,24.1
2017-08-10T12:36:24.817Z,24.1
2017-08-10T12:37:34.357Z,23.94
2017-08-10T12:38:44.225Z,23.94
2017-08-10T12:39:53.765Z,24
2017-08-10T12:41:03.305Z,23.98
2017-08-10T12:42:12.889Z,23.9
2017-08-10T12:43:22.108Z,23.97
2017-08-10T12:44:31.007Z,23.95
2017-08-10T12:45:40.223Z,23.8
2017-08-10T12:46:49.822Z,23.76
2017-08-10T12:47:59.460Z,23.83
2017-08-10T12:49:08.690Z,23.8
2017-08-10T12:50:18.554Z,23.7
2017-08-10T12:51:27.792Z,23.69
2017-08-10T12:52:37.981Z,23.69
2017-08-10T12:53:47.034Z,23.58
2017-08-10T12:54:56.250Z,23.55
2017-08-10T12:56:05.156Z,23.47
2017-08-10T12:57:14.378Z,23.5
2017-08-10T12:58:24.247Z,23.38
2017-08-10T12:59:34.106Z,23.42
2017-08-10T13:00:43.005Z,23.36
2017-08-10T13:01:52.872Z,23.28
2017-08-10T13:03:02.088Z,23.27
2017-08-10T13:04:11.303Z,23.23
2017-08-10T13:05:21.648Z,23.22
2017-08-10T13:06:30.538Z,23.15
2017-08-10T13:07:40.415Z,23.1
2017-08-10T13:08:49.639Z,23.1
2017-08-10T13:09:59.184Z,23.1
2017-08-10T13:11:08.558Z,23.05
2017-08-10T13:12:18.099Z,23.02
2017-08-10T13:13:27.315Z,23.05
2017-08-10T13:14:36.850Z,23.01
2017-08-10T13:15:46.392Z,23.01
2017-08-10T13:16:56.229Z,22.86
2017-08-10T13:18:06.092Z,22.98
2017-08-10T13:19:14.987Z,22.98
2017-08-10T13:20:24.212Z,22.77
2017-08-10T13:21:33.430Z,22.79
2017-08-10T13:22:43.126Z,22.8
2017-08-10T13:23:52.984Z,22.62
2017-08-10T13:25:02.524Z,22.54
2017-08-10T13:26:11.744Z,22.65
2017-08-10T13:27:21.291Z,22.49
2017-08-10T13:28:30.329Z,22.58
2017-08-10T13:29:39.226Z,22.54
2017-08-10T13:30:48.772Z,22.52
2017-08-10T13:31:58.632Z,22.52
2017-08-10T13:33:08.171Z,22.49
2017-08-10T13:34:17.550Z,22.61
2017-08-10T13:35:26.466Z,22.64
2017-08-10T13:36:36.003Z,22.62
2017-08-10T13:37:45.537Z,22.73
2017-08-10T13:38:55.098Z,22.62
2017-08-10T13:40:04.956Z,22.72
2017-08-10T13:41:14.171Z,22.76
2017-08-10T13:42:23.713Z,22.9
2017-08-10T13:43:32.928Z,23.05
2017-08-10T13:44:42.254Z,23.17
2017-08-10T13:45:51.207Z,23.4
2017-08-10T13:47:01.105Z,23.6
2017-08-10T13:48:10.334Z,23.6
2017-08-10T13:49:19.576Z,23.61
2017-08-10T13:50:28.777Z,23.83
2017-08-10T13:51:38.007Z,23.72
2017-08-10T13:52:47.234Z,23.78
2017-08-10T13:53:56.777Z,23.7
2017-08-10T13:55:06.005Z,23.87
2017-08-10T13:56:15.559Z,23.95
2017-08-10T13:57:24.779Z,24.08
2017-08-10T13:58:34.326Z,24.24
2017-08-10T13:59:43.553Z,24.35
2017-08-10T14:00:53.104Z,24.31
2017-08-10T14:02:03.305Z,24.28
2017-08-10T14:03:12.583Z,24.16
2017-08-10T14:04:21.847Z,24.16
2017-08-10T14:05:31.714Z,24.22
2017-08-10T14:06:40.934Z,24.22
2017-08-10T14:07:50.154Z,24.45
2017-08-10T14:08:59.698Z,24.5
2017-08-10T14:10:09.599Z,24.55
2017-08-10T14:11:18.902Z,24.49
2017-08-10T14:12:28.460Z,24.73
2017-08-10T14:13:37.731Z,24.77
2017-08-10T14:14:46.951Z,24.73
2017-08-10T14:15:56.267Z,24.83
2017-08-10T14:17:05.929Z,24.87
2017-08-10T14:18:15.218Z,24.81
2017-08-10T14:19:24.494Z,24.65
2017-08-10T14:20:33.718Z,24.61
2017-08-10T14:21:43.266Z,24.47
2017-08-10T14:22:52.536Z,24.5
2017-08-10T14:24:02.655Z,24.64
2017-08-10T14:25:12.528Z,24.6
2017-08-10T14:26:21.768Z,24.68
2017-08-10T14:27:31.005Z,24.65
2017-08-10T14:28:40.545Z,24.62
2017-08-10T14:29:49.762Z,24.64
2017-08-10T14:30:59.304Z,24.71
2017-08-10T14:32:08.522Z,24.61
2017-08-10T14:33:17.744Z,24.65
2017-08-10T14:34:28.013Z,24.6
2017-08-10T14:35:37.259Z,24.47
2017-08-10T14:36:46.476Z,24.52
2017-08-10T14:37:56.369Z,24.47
2017-08-10T14:39:05.913Z,24.42
2017-08-10T14:40:15.861Z,24.24
2017-08-10T14:41:26.087Z,24.25
2017-08-10T14:42:35.313Z,24.21
2017-08-10T14:43:45.178Z,24.21
2017-08-10T14:44:54.715Z,24.18
2017-08-10T14:46:04.518Z,24.13
2017-08-10T14:47:13.739Z,24.08
2017-08-10T14:48:23.279Z,23.98
2017-08-10T14:49:32.501Z,23.87
2017-08-10T14:50:41.719Z,23.58
2017-08-10T14:51:51.466Z,23.63
2017-08-10T14:53:00.695Z,23.6
2017-08-10T14:54:09.920Z,23.65
2017-08-10T14:55:19.144Z,23.63
2017-08-10T14:56:29.023Z,23.53
2017-08-10T14:57:38.501Z,23.4
2017-08-10T14:58:48.055Z,23.36